sensor_id;sensor_type;location;lat;lon;timestamp;temperature;humidity
16505;HTU21D;8365;51.030;4.696;2022-11-20T00:00:20;5.16;116.82
16505;HTU21D;8365;51.030;4.696;2022-11-20T00:02:51;5.18;117.04
16505;HTU21D;8365;51.030;4.696;2022-11-20T00:05:21;5.36;117.18
16505;HTU21D;8365;51.030;4.696;2022-11-20T00:07:52;5.43;116.35
16505;HTU21D;8365;51.030;4.696;2022-11-20T00:10:22;5.70;114.30
16505;HTU21D;8365;51.030;4.696;2022-11-20T00:12:53;5.81;113.38
16505;HTU21D;8365;51.030;4.696;2022-11-20T00:15:23;5.67;113.16
16505;HTU21D;8365;51.030;4.696;2022-11-20T00:17:54;5.79;111.84
16505;HTU21D;8365;51.030;4.696;2022-11-20T00:20:24;5.78;112.00
16505;HTU21D;8365;51.030;4.696;2022-11-20T00:22:55;5.90;112.49
16505;HTU21D;8365;51.030;4.696;2022-11-20T00:25:25;5.97;113.18
16505;HTU21D;8365;51.030;4.696;2022-11-20T00:27:55;5.97;114.73
16505;HTU21D;8365;51.030;4.696;2022-11-20T00:30:28;5.95;114.86
16505;HTU21D;8365;51.030;4.696;2022-11-20T00:32:59;5.49;118.20
16505;HTU21D;8365;51.030;4.696;2022-11-20T00:35:29;5.65;118.99
16505;HTU21D;8365;51.030;4.696;2022-11-20T00:38:00;5.49;118.99
16505;HTU21D;8365;51.030;4.696;2022-11-20T00:40:30;5.77;118.80
16505;HTU21D;8365;51.030;4.696;2022-11-20T00:43:00;5.90;117.41
16505;HTU21D;8365;51.030;4.696;2022-11-20T00:45:31;5.86;115.38
16505;HTU21D;8365;51.030;4.696;2022-11-20T00:48:01;5.92;113.53
16505;HTU21D;8365;51.030;4.696;2022-11-20T00:50:32;5.95;114.88
16505;HTU21D;8365;51.030;4.696;2022-11-20T00:53:02;6.02;114.61
16505;HTU21D;8365;51.030;4.696;2022-11-20T00:55:32;5.97;115.09
16505;HTU21D;8365;51.030;4.696;2022-11-20T00:58:03;5.70;116.47
16505;HTU21D;8365;51.030;4.696;2022-11-20T01:00:34;5.77;116.19
16505;HTU21D;8365;51.030;4.696;2022-11-20T01:03:04;5.87;116.77
16505;HTU21D;8365;51.030;4.696;2022-11-20T01:05:35;5.90;116.57
16505;HTU21D;8365;51.030;4.696;2022-11-20T01:08:06;6.04;115.20
16505;HTU21D;8365;51.030;4.696;2022-11-20T01:10:36;5.82;116.99
16505;HTU21D;8365;51.030;4.696;2022-11-20T01:13:07;5.87;115.70
16505;HTU21D;8365;51.030;4.696;2022-11-20T01:16:02;5.91;114.68
16505;HTU21D;8365;51.030;4.696;2022-11-20T01:18:34;5.83;115.60
16505;HTU21D;8365;51.030;4.696;2022-11-20T01:21:07;5.90;116.37
16505;HTU21D;8365;51.030;4.696;2022-11-20T01:23:40;5.69;117.67
16505;HTU21D;8365;51.030;4.696;2022-11-20T01:26:13;5.83;116.49
16505;HTU21D;8365;51.030;4.696;2022-11-20T01:28:44;6.09;115.77
16505;HTU21D;8365;51.030;4.696;2022-11-20T01:31:23;5.96;115.11
16505;HTU21D;8365;51.030;4.696;2022-11-20T01:33:57;5.95;116.09
16505;HTU21D;8365;51.030;4.696;2022-11-20T01:36:29;5.87;115.50
16505;HTU21D;8365;51.030;4.696;2022-11-20T01:39:02;5.94;115.30
16505;HTU21D;8365;51.030;4.696;2022-11-20T01:41:37;6.00;115.81
16505;HTU21D;8365;51.030;4.696;2022-11-20T01:47:44;5.99;114.23
16505;HTU21D;8365;51.030;4.696;2022-11-20T01:50:22;5.87;115.03
16505;HTU21D;8365;51.030;4.696;2022-11-20T01:53:03;5.98;114.51
16505;HTU21D;8365;51.030;4.696;2022-11-20T01:55:39;5.93;114.90
16505;HTU21D;8365;51.030;4.696;2022-11-20T01:58:10;5.84;114.96
16505;HTU21D;8365;51.030;4.696;2022-11-20T02:00:41;5.92;115.25
16505;HTU21D;8365;51.030;4.696;2022-11-20T02:03:14;5.86;116.04
16505;HTU21D;8365;51.030;4.696;2022-11-20T02:06:14;5.78;117.12
16505;HTU21D;8365;51.030;4.696;2022-11-20T02:08:47;5.86;116.07
16505;HTU21D;8365;51.030;4.696;2022-11-20T02:11:18;5.86;116.15
16505;HTU21D;8365;51.030;4.696;2022-11-20T02:13:49;5.91;115.29
16505;HTU21D;8365;51.030;4.696;2022-11-20T02:16:30;6.00;114.74
16505;HTU21D;8365;51.030;4.696;2022-11-20T02:19:02;5.89;115.26
16505;HTU21D;8365;51.030;4.696;2022-11-20T02:21:43;5.90;116.32
16505;HTU21D;8365;51.030;4.696;2022-11-20T02:24:17;5.99;115.25
16505;HTU21D;8365;51.030;4.696;2022-11-20T02:27:07;5.94;116.17
16505;HTU21D;8365;51.030;4.696;2022-11-20T02:29:52;5.69;118.99
16505;HTU21D;8365;51.030;4.696;2022-11-20T02:32:34;5.89;117.38
16505;HTU21D;8365;51.030;4.696;2022-11-20T02:37:53;5.83;117.54
16505;HTU21D;8365;51.030;4.696;2022-11-20T02:40:25;5.49;118.99
16505;HTU21D;8365;51.030;4.696;2022-11-20T02:42:58;5.32;118.99
16505;HTU21D;8365;51.030;4.696;2022-11-20T02:45:29;5.24;118.99
16505;HTU21D;8365;51.030;4.696;2022-11-20T02:47:59;5.07;118.99
16505;HTU21D;8365;51.030;4.696;2022-11-20T02:50:30;4.82;118.99
16505;HTU21D;8365;51.030;4.696;2022-11-20T02:53:00;4.87;118.99
16505;HTU21D;8365;51.030;4.696;2022-11-20T02:55:31;5.22;118.99
16505;HTU21D;8365;51.030;4.696;2022-11-20T02:58:01;5.27;118.99
16505;HTU21D;8365;51.030;4.696;2022-11-20T03:00:32;5.31;118.99
16505;HTU21D;8365;51.030;4.696;2022-11-20T03:03:02;5.43;118.99
16505;HTU21D;8365;51.030;4.696;2022-11-20T03:05:33;5.61;118.99
16505;HTU21D;8365;51.030;4.696;2022-11-20T03:08:06;5.67;118.92
16505;HTU21D;8365;51.030;4.696;2022-11-20T03:10:36;5.71;118.99
16505;HTU21D;8365;51.030;4.696;2022-11-20T03:13:06;5.71;118.99
16505;HTU21D;8365;51.030;4.696;2022-11-20T03:15:37;5.54;118.06
16505;HTU21D;8365;51.030;4.696;2022-11-20T03:18:07;5.69;118.37
16505;HTU21D;8365;51.030;4.696;2022-11-20T03:20:40;5.57;117.80
16505;HTU21D;8365;51.030;4.696;2022-11-20T03:23:10;5.72;118.31
16505;HTU21D;8365;51.030;4.696;2022-11-20T03:25:41;5.84;116.90
16505;HTU21D;8365;51.030;4.696;2022-11-20T03:28:11;5.74;117.85
16505;HTU21D;8365;51.030;4.696;2022-11-20T03:30:42;5.82;117.47
16505;HTU21D;8365;51.030;4.696;2022-11-20T03:33:12;5.86;117.12
16505;HTU21D;8365;51.030;4.696;2022-11-20T03:35:45;5.66;118.08
16505;HTU21D;8365;51.030;4.696;2022-11-20T03:38:15;5.70;117.92
16505;HTU21D;8365;51.030;4.696;2022-11-20T03:40:46;5.72;118.26
16505;HTU21D;8365;51.030;4.696;2022-11-20T03:43:16;5.79;116.92
16505;HTU21D;8365;51.030;4.696;2022-11-20T03:45:47;5.74;118.29
16505;HTU21D;8365;51.030;4.696;2022-11-20T03:48:17;5.71;118.99
16505;HTU21D;8365;51.030;4.696;2022-11-20T03:50:47;5.56;118.99
16505;HTU21D;8365;51.030;4.696;2022-11-20T03:53:18;5.67;118.99
16505;HTU21D;8365;51.030;4.696;2022-11-20T03:55:52;5.42;118.99
16505;HTU21D;8365;51.030;4.696;2022-11-20T03:58:22;5.41;118.99
16505;HTU21D;8365;51.030;4.696;2022-11-20T04:00:53;5.18;118.99
16505;HTU21D;8365;51.030;4.696;2022-11-20T04:03:23;5.22;118.99
16505;HTU21D;8365;51.030;4.696;2022-11-20T04:05:53;5.30;118.99
16505;HTU21D;8365;51.030;4.696;2022-11-20T04:08:28;5.51;118.99
16505;HTU21D;8365;51.030;4.696;2022-11-20T04:11:12;5.56;118.99
16505;HTU21D;8365;51.030;4.696;2022-11-20T04:13:47;5.62;118.99
16505;HTU21D;8365;51.030;4.696;2022-11-20T04:16:18;5.56;118.99
16505;HTU21D;8365;51.030;4.696;2022-11-20T04:18:56;5.57;118.99
16505;HTU21D;8365;51.030;4.696;2022-11-20T04:21:27;5.40;118.99
16505;HTU21D;8365;51.030;4.696;2022-11-20T04:24:00;5.39;118.99
16505;HTU21D;8365;51.030;4.696;2022-11-20T04:26:31;5.34;118.99
16505;HTU21D;8365;51.030;4.696;2022-11-20T04:29:02;5.19;118.99
16505;HTU21D;8365;51.030;4.696;2022-11-20T04:31:34;5.20;118.99
16505;HTU21D;8365;51.030;4.696;2022-11-20T04:34:06;5.42;118.99
16505;HTU21D;8365;51.030;4.696;2022-11-20T04:36:36;5.47;118.99
16505;HTU21D;8365;51.030;4.696;2022-11-20T04:39:11;5.46;118.99
16505;HTU21D;8365;51.030;4.696;2022-11-20T04:41:42;5.59;118.99
16505;HTU21D;8365;51.030;4.696;2022-11-20T04:44:15;5.69;118.99
16505;HTU21D;8365;51.030;4.696;2022-11-20T04:46:45;5.65;118.99
16505;HTU21D;8365;51.030;4.696;2022-11-20T04:49:16;5.84;118.99
16505;HTU21D;8365;51.030;4.696;2022-11-20T04:51:46;5.86;118.99
16505;HTU21D;8365;51.030;4.696;2022-11-20T04:54:17;5.90;118.99
16505;HTU21D;8365;51.030;4.696;2022-11-20T04:56:47;5.89;118.99
16505;HTU21D;8365;51.030;4.696;2022-11-20T04:59:18;5.68;118.99
16505;HTU21D;8365;51.030;4.696;2022-11-20T05:01:48;5.74;118.99
16505;HTU21D;8365;51.030;4.696;2022-11-20T05:04:19;6.02;118.99
16505;HTU21D;8365;51.030;4.696;2022-11-20T05:06:50;6.08;118.99
16505;HTU21D;8365;51.030;4.696;2022-11-20T05:09:20;6.05;118.99
16505;HTU21D;8365;51.030;4.696;2022-11-20T05:11:50;6.05;118.99
16505;HTU21D;8365;51.030;4.696;2022-11-20T05:14:23;6.16;118.99
16505;HTU21D;8365;51.030;4.696;2022-11-20T05:16:54;6.05;118.99
16505;HTU21D;8365;51.030;4.696;2022-11-20T05:19:24;6.11;118.99
16505;HTU21D;8365;51.030;4.696;2022-11-20T05:21:54;5.75;118.99
16505;HTU21D;8365;51.030;4.696;2022-11-20T05:24:25;6.00;118.99
16505;HTU21D;8365;51.030;4.696;2022-11-20T05:26:55;6.00;118.99
16505;HTU21D;8365;51.030;4.696;2022-11-20T05:29:26;5.93;118.99
16505;HTU21D;8365;51.030;4.696;2022-11-20T05:31:56;5.96;118.99
16505;HTU21D;8365;51.030;4.696;2022-11-20T05:34:26;6.02;118.99
16505;HTU21D;8365;51.030;4.696;2022-11-20T05:36:57;5.77;118.99
16505;HTU21D;8365;51.030;4.696;2022-11-20T05:39:27;5.70;118.99
16505;HTU21D;8365;51.030;4.696;2022-11-20T05:41:58;5.79;118.99
16505;HTU21D;8365;51.030;4.696;2022-11-20T05:44:47;5.93;118.99
16505;HTU21D;8365;51.030;4.696;2022-11-20T05:47:17;5.92;118.99
16505;HTU21D;8365;51.030;4.696;2022-11-20T05:49:48;5.77;118.99
16505;HTU21D;8365;51.030;4.696;2022-11-20T05:52:18;5.82;118.99
16505;HTU21D;8365;51.030;4.696;2022-11-20T05:54:48;5.87;118.99
16505;HTU21D;8365;51.030;4.696;2022-11-20T05:57:19;5.77;118.99
16505;HTU21D;8365;51.030;4.696;2022-11-20T05:59:49;5.86;118.99
16505;HTU21D;8365;51.030;4.696;2022-11-20T06:02:20;5.59;118.99
16505;HTU21D;8365;51.030;4.696;2022-11-20T06:04:50;5.20;118.99
16505;HTU21D;8365;51.030;4.696;2022-11-20T06:07:21;5.16;118.99
16505;HTU21D;8365;51.030;4.696;2022-11-20T06:09:51;4.91;118.99
16505;HTU21D;8365;51.030;4.696;2022-11-20T06:12:22;5.02;118.99
16505;HTU21D;8365;51.030;4.696;2022-11-20T06:14:52;5.20;118.99
16505;HTU21D;8365;51.030;4.696;2022-11-20T06:17:22;5.16;118.99
16505;HTU21D;8365;51.030;4.696;2022-11-20T06:19:53;5.06;118.99
16505;HTU21D;8365;51.030;4.696;2022-11-20T06:22:23;5.24;118.99
16505;HTU21D;8365;51.030;4.696;2022-11-20T06:24:54;5.34;118.99
16505;HTU21D;8365;51.030;4.696;2022-11-20T06:27:24;5.33;118.99
16505;HTU21D;8365;51.030;4.696;2022-11-20T06:29:54;5.13;118.99
16505;HTU21D;8365;51.030;4.696;2022-11-20T06:32:25;5.07;118.99
16505;HTU21D;8365;51.030;4.696;2022-11-20T06:34:55;5.15;118.99
16505;HTU21D;8365;51.030;4.696;2022-11-20T06:37:26;4.93;118.99
16505;HTU21D;8365;51.030;4.696;2022-11-20T06:39:56;4.95;118.99
16505;HTU21D;8365;51.030;4.696;2022-11-20T06:42:27;5.00;118.99
16505;HTU21D;8365;51.030;4.696;2022-11-20T06:44:57;4.91;118.99
16505;HTU21D;8365;51.030;4.696;2022-11-20T06:47:27;4.87;118.99
16505;HTU21D;8365;51.030;4.696;2022-11-20T06:49:58;5.04;118.99
16505;HTU21D;8365;51.030;4.696;2022-11-20T06:52:28;5.10;118.99
16505;HTU21D;8365;51.030;4.696;2022-11-20T06:54:59;4.91;118.99
16505;HTU21D;8365;51.030;4.696;2022-11-20T06:57:30;4.82;118.99
16505;HTU21D;8365;51.030;4.696;2022-11-20T07:00:00;4.87;118.99
16505;HTU21D;8365;51.030;4.696;2022-11-20T07:02:31;4.88;118.99
16505;HTU21D;8365;51.030;4.696;2022-11-20T07:05:01;4.92;118.99
16505;HTU21D;8365;51.030;4.696;2022-11-20T07:07:31;4.82;118.99
16505;HTU21D;8365;51.030;4.696;2022-11-20T07:10:02;4.76;118.99
16505;HTU21D;8365;51.030;4.696;2022-11-20T07:12:33;4.89;118.99
16505;HTU21D;8365;51.030;4.696;2022-11-20T07:15:03;4.94;118.99
16505;HTU21D;8365;51.030;4.696;2022-11-20T07:17:36;4.89;118.99
16505;HTU21D;8365;51.030;4.696;2022-11-20T07:20:07;4.80;118.99
16505;HTU21D;8365;51.030;4.696;2022-11-20T07:22:38;4.80;118.99
16505;HTU21D;8365;51.030;4.696;2022-11-20T07:25:09;5.16;118.99
16505;HTU21D;8365;51.030;4.696;2022-11-20T07:27:39;5.28;118.99
16505;HTU21D;8365;51.030;4.696;2022-11-20T07:30:10;5.11;118.99
16505;HTU21D;8365;51.030;4.696;2022-11-20T07:32:41;5.10;118.99
16505;HTU21D;8365;51.030;4.696;2022-11-20T07:35:11;5.17;118.99
16505;HTU21D;8365;51.030;4.696;2022-11-20T07:37:42;5.15;118.99
16505;HTU21D;8365;51.030;4.696;2022-11-20T07:40:13;5.08;118.99
16505;HTU21D;8365;51.030;4.696;2022-11-20T07:42:50;5.16;118.99
16505;HTU21D;8365;51.030;4.696;2022-11-20T07:45:23;5.08;118.99
16505;HTU21D;8365;51.030;4.696;2022-11-20T07:47:54;4.91;118.99
16505;HTU21D;8365;51.030;4.696;2022-11-20T07:50:24;5.21;118.99
16505;HTU21D;8365;51.030;4.696;2022-11-20T07:53:02;5.47;118.99
16505;HTU21D;8365;51.030;4.696;2022-11-20T07:55:33;5.33;118.99
16505;HTU21D;8365;51.030;4.696;2022-11-20T07:58:04;5.34;118.99
16505;HTU21D;8365;51.030;4.696;2022-11-20T08:00:34;5.40;118.99
16505;HTU21D;8365;51.030;4.696;2022-11-20T08:03:05;5.66;118.99
16505;HTU21D;8365;51.030;4.696;2022-11-20T08:05:35;5.74;118.99
16505;HTU21D;8365;51.030;4.696;2022-11-20T08:08:07;5.64;118.99
16505;HTU21D;8365;51.030;4.696;2022-11-20T08:10:38;5.74;118.99
16505;HTU21D;8365;51.030;4.696;2022-11-20T08:13:08;5.56;118.99
16505;HTU21D;8365;51.030;4.696;2022-11-20T08:15:57;5.54;118.99
16505;HTU21D;8365;51.030;4.696;2022-11-20T08:18:28;5.77;118.99
16505;HTU21D;8365;51.030;4.696;2022-11-20T08:21:07;5.55;118.99
16505;HTU21D;8365;51.030;4.696;2022-11-20T08:23:40;5.65;118.99
16505;HTU21D;8365;51.030;4.696;2022-11-20T08:26:10;5.71;118.99
16505;HTU21D;8365;51.030;4.696;2022-11-20T08:28:41;5.89;118.99
16505;HTU21D;8365;51.030;4.696;2022-11-20T08:31:14;5.94;118.99
16505;HTU21D;8365;51.030;4.696;2022-11-20T08:33:46;5.62;118.99
16505;HTU21D;8365;51.030;4.696;2022-11-20T08:36:17;5.53;118.99
16505;HTU21D;8365;51.030;4.696;2022-11-20T08:38:49;5.85;118.99
16505;HTU21D;8365;51.030;4.696;2022-11-20T08:41:20;5.84;118.99
16505;HTU21D;8365;51.030;4.696;2022-11-20T08:43:56;5.98;118.99
16505;HTU21D;8365;51.030;4.696;2022-11-20T08:46:31;5.99;118.99
16505;HTU21D;8365;51.030;4.696;2022-11-20T08:49:09;5.91;118.99
16505;HTU21D;8365;51.030;4.696;2022-11-20T08:51:40;5.91;118.99
16505;HTU21D;8365;51.030;4.696;2022-11-20T08:54:10;5.95;118.99
16505;HTU21D;8365;51.030;4.696;2022-11-20T08:56:41;6.10;118.99
16505;HTU21D;8365;51.030;4.696;2022-11-20T08:59:11;5.99;118.99
16505;HTU21D;8365;51.030;4.696;2022-11-20T09:01:41;5.92;118.99
16505;HTU21D;8365;51.030;4.696;2022-11-20T09:04:12;6.07;118.99
16505;HTU21D;8365;51.030;4.696;2022-11-20T09:06:44;6.31;118.99
16505;HTU21D;8365;51.030;4.696;2022-11-20T09:09:14;6.44;118.99
16505;HTU21D;8365;51.030;4.696;2022-11-20T09:11:46;6.21;118.99
16505;HTU21D;8365;51.030;4.696;2022-11-20T09:14:16;6.42;118.99
16505;HTU21D;8365;51.030;4.696;2022-11-20T09:16:49;6.51;118.99
16505;HTU21D;8365;51.030;4.696;2022-11-20T09:19:19;6.74;118.99
16505;HTU21D;8365;51.030;4.696;2022-11-20T09:21:50;6.93;118.99
16505;HTU21D;8365;51.030;4.696;2022-11-20T09:24:21;6.99;118.99
16505;HTU21D;8365;51.030;4.696;2022-11-20T09:26:51;7.12;118.99
16505;HTU21D;8365;51.030;4.696;2022-11-20T09:29:22;6.98;118.99
16505;HTU21D;8365;51.030;4.696;2022-11-20T09:31:52;7.32;118.99
16505;HTU21D;8365;51.030;4.696;2022-11-20T09:34:22;7.07;118.99
16505;HTU21D;8365;51.030;4.696;2022-11-20T09:36:53;7.16;118.99
16505;HTU21D;8365;51.030;4.696;2022-11-20T09:39:23;7.07;118.99
16505;HTU21D;8365;51.030;4.696;2022-11-20T09:48:01;7.09;118.99
16505;HTU21D;8365;51.030;4.696;2022-11-20T09:56:08;6.96;118.99
16505;HTU21D;8365;51.030;4.696;2022-11-20T09:58:43;7.19;118.99
16505;HTU21D;8365;51.030;4.696;2022-11-20T10:01:17;7.16;118.99
16505;HTU21D;8365;51.030;4.696;2022-11-20T10:06:44;7.12;118.99
16505;HTU21D;8365;51.030;4.696;2022-11-20T10:09:33;7.42;118.99
16505;HTU21D;8365;51.030;4.696;2022-11-20T10:15:33;7.59;118.99
16505;HTU21D;8365;51.030;4.696;2022-11-20T10:18:28;7.63;118.99
16505;HTU21D;8365;51.030;4.696;2022-11-20T10:26:53;7.81;118.99
16505;HTU21D;8365;51.030;4.696;2022-11-20T10:29:38;8.03;118.99
16505;HTU21D;8365;51.030;4.696;2022-11-20T10:32:20;8.04;118.99
16505;HTU21D;8365;51.030;4.696;2022-11-20T10:35:02;8.15;118.99
16505;HTU21D;8365;51.030;4.696;2022-11-20T10:37:35;7.94;118.99
16505;HTU21D;8365;51.030;4.696;2022-11-20T10:43:12;8.02;118.99
16505;HTU21D;8365;51.030;4.696;2022-11-20T10:45:56;8.16;118.99
16505;HTU21D;8365;51.030;4.696;2022-11-20T10:48:29;8.27;118.99
16505;HTU21D;8365;51.030;4.696;2022-11-20T10:56:22;8.48;118.99
16505;HTU21D;8365;51.030;4.696;2022-11-20T10:59:12;8.36;118.99
16505;HTU21D;8365;51.030;4.696;2022-11-20T11:01:48;8.45;118.99
16505;HTU21D;8365;51.030;4.696;2022-11-20T11:04:54;8.49;118.99
16505;HTU21D;8365;51.030;4.696;2022-11-20T11:07:28;8.60;118.99
16505;HTU21D;8365;51.030;4.696;2022-11-20T11:09:59;8.91;118.99
16505;HTU21D;8365;51.030;4.696;2022-11-20T11:12:30;9.12;118.99
16505;HTU21D;8365;51.030;4.696;2022-11-20T11:15:00;9.26;118.99
16505;HTU21D;8365;51.030;4.696;2022-11-20T11:17:34;9.45;118.99
16505;HTU21D;8365;51.030;4.696;2022-11-20T11:22:47;9.46;118.99
16505;HTU21D;8365;51.030;4.696;2022-11-20T11:25:31;9.67;118.99
16505;HTU21D;8365;51.030;4.696;2022-11-20T11:28:26;9.92;118.99
16505;HTU21D;8365;51.030;4.696;2022-11-20T11:30:57;10.18;118.99
16505;HTU21D;8365;51.030;4.696;2022-11-20T11:33:30;10.39;118.99
16505;HTU21D;8365;51.030;4.696;2022-11-20T11:36:14;10.04;118.99
16505;HTU21D;8365;51.030;4.696;2022-11-20T11:38:51;10.22;118.99
16505;HTU21D;8365;51.030;4.696;2022-11-20T11:41:28;10.39;118.99
16505;HTU21D;8365;51.030;4.696;2022-11-20T11:44:28;10.41;118.99
16505;HTU21D;8365;51.030;4.696;2022-11-20T11:47:25;10.45;118.99
16505;HTU21D;8365;51.030;4.696;2022-11-20T11:55:47;10.58;118.99
16505;HTU21D;8365;51.030;4.696;2022-11-20T11:58:40;10.51;118.99
16505;HTU21D;8365;51.030;4.696;2022-11-20T12:04:20;10.73;118.99
16505;HTU21D;8365;51.030;4.696;2022-11-20T12:07:06;10.71;118.99
16505;HTU21D;8365;51.030;4.696;2022-11-20T12:09:43;10.64;118.99
16505;HTU21D;8365;51.030;4.696;2022-11-20T12:12:20;10.57;118.99
16505;HTU21D;8365;51.030;4.696;2022-11-20T12:14:56;10.55;118.99
16505;HTU21D;8365;51.030;4.696;2022-11-20T12:17:28;10.66;118.99
16505;HTU21D;8365;51.030;4.696;2022-11-20T12:19:58;10.63;118.99
16505;HTU21D;8365;51.030;4.696;2022-11-20T12:22:55;10.39;118.99
16505;HTU21D;8365;51.030;4.696;2022-11-20T12:25:30;10.30;118.99
16505;HTU21D;8365;51.030;4.696;2022-11-20T12:31:22;10.40;118.99
16505;HTU21D;8365;51.030;4.696;2022-11-20T12:34:06;10.23;118.99
16505;HTU21D;8365;51.030;4.696;2022-11-20T12:39:36;10.06;118.99
16505;HTU21D;8365;51.030;4.696;2022-11-20T12:42:36;9.72;118.99
16505;HTU21D;8365;51.030;4.696;2022-11-20T12:45:49;9.42;118.99
16505;HTU21D;8365;51.030;4.696;2022-11-20T12:57:00;8.59;118.99
16505;HTU21D;8365;51.030;4.696;2022-11-20T12:59:36;8.60;118.99
16505;HTU21D;8365;51.030;4.696;2022-11-20T13:02:23;8.70;118.99
16505;HTU21D;8365;51.030;4.696;2022-11-20T13:05:00;8.59;118.99
16505;HTU21D;8365;51.030;4.696;2022-11-20T13:07:35;8.61;118.99
16505;HTU21D;8365;51.030;4.696;2022-11-20T13:10:16;8.58;118.99
16505;HTU21D;8365;51.030;4.696;2022-11-20T13:12:56;8.66;118.99
16505;HTU21D;8365;51.030;4.696;2022-11-20T13:15:45;8.76;118.99
16505;HTU21D;8365;51.030;4.696;2022-11-20T13:18:18;8.71;118.99
16505;HTU21D;8365;51.030;4.696;2022-11-20T13:20:49;8.95;118.99
16505;HTU21D;8365;51.030;4.696;2022-11-20T13:23:24;8.97;118.99
16505;HTU21D;8365;51.030;4.696;2022-11-20T13:26:16;8.98;118.99
16505;HTU21D;8365;51.030;4.696;2022-11-20T13:28:58;9.11;118.99
16505;HTU21D;8365;51.030;4.696;2022-11-20T13:31:32;9.19;118.99
16505;HTU21D;8365;51.030;4.696;2022-11-20T13:34:04;9.19;118.99
16505;HTU21D;8365;51.030;4.696;2022-11-20T13:36:35;9.21;118.99
16505;HTU21D;8365;51.030;4.696;2022-11-20T13:39:08;9.33;118.99
16505;HTU21D;8365;51.030;4.696;2022-11-20T13:41:39;9.24;118.99
16505;HTU21D;8365;51.030;4.696;2022-11-20T13:46:46;9.25;118.99
16505;HTU21D;8365;51.030;4.696;2022-11-20T13:49:31;9.26;118.99
16505;HTU21D;8365;51.030;4.696;2022-11-20T13:55:40;9.17;118.99
16505;HTU21D;8365;51.030;4.696;2022-11-20T14:01:17;9.02;118.99
16505;HTU21D;8365;51.030;4.696;2022-11-20T14:03:49;8.95;118.99
16505;HTU21D;8365;51.030;4.696;2022-11-20T14:08:59;8.87;118.99
16505;HTU21D;8365;51.030;4.696;2022-11-20T14:11:30;8.90;118.99
16505;HTU21D;8365;51.030;4.696;2022-11-20T14:14:13;8.80;118.99
16505;HTU21D;8365;51.030;4.696;2022-11-20T14:16:46;8.72;118.99
16505;HTU21D;8365;51.030;4.696;2022-11-20T14:22:38;8.76;118.99
16505;HTU21D;8365;51.030;4.696;2022-11-20T14:24:44;8.60;118.99
16505;HTU21D;8365;51.030;4.696;2022-11-20T14:27:19;8.68;118.99
16505;HTU21D;8365;51.030;4.696;2022-11-20T14:29:55;8.77;118.99
16505;HTU21D;8365;51.030;4.696;2022-11-20T14:32:28;8.61;118.99
16505;HTU21D;8365;51.030;4.696;2022-11-20T14:35:07;8.50;118.99
16505;HTU21D;8365;51.030;4.696;2022-11-20T14:37:40;8.50;118.99
16505;HTU21D;8365;51.030;4.696;2022-11-20T14:42:53;8.42;118.99
16505;HTU21D;8365;51.030;4.696;2022-11-20T14:45:24;8.24;118.99
16505;HTU21D;8365;51.030;4.696;2022-11-20T14:47:56;8.34;118.99
16505;HTU21D;8365;51.030;4.696;2022-11-20T14:50:29;8.46;118.99
16505;HTU21D;8365;51.030;4.696;2022-11-20T14:53:00;8.41;118.99
16505;HTU21D;8365;51.030;4.696;2022-11-20T14:55:34;8.47;118.99
16505;HTU21D;8365;51.030;4.696;2022-11-20T14:58:19;8.43;118.99
16505;HTU21D;8365;51.030;4.696;2022-11-20T15:00:59;8.39;118.99
16505;HTU21D;8365;51.030;4.696;2022-11-20T15:03:38;8.35;118.99
16505;HTU21D;8365;51.030;4.696;2022-11-20T15:06:11;8.32;118.99
16505;HTU21D;8365;51.030;4.696;2022-11-20T15:08:51;8.23;118.99
16505;HTU21D;8365;51.030;4.696;2022-11-20T15:11:28;8.13;118.99
16505;HTU21D;8365;51.030;4.696;2022-11-20T15:14:04;8.19;118.99
16505;HTU21D;8365;51.030;4.696;2022-11-20T15:16:35;8.15;118.99
16505;HTU21D;8365;51.030;4.696;2022-11-20T15:19:16;8.26;118.99
16505;HTU21D;8365;51.030;4.696;2022-11-20T15:21:47;8.31;118.99
16505;HTU21D;8365;51.030;4.696;2022-11-20T15:24:18;8.35;118.99
16505;HTU21D;8365;51.030;4.696;2022-11-20T15:26:48;8.21;118.99
16505;HTU21D;8365;51.030;4.696;2022-11-20T15:29:20;8.27;118.99
16505;HTU21D;8365;51.030;4.696;2022-11-20T15:31:52;8.30;118.99
16505;HTU21D;8365;51.030;4.696;2022-11-20T15:34:26;8.23;118.99
16505;HTU21D;8365;51.030;4.696;2022-11-20T15:36:57;8.21;118.99
16505;HTU21D;8365;51.030;4.696;2022-11-20T15:39:27;8.23;118.99
16505;HTU21D;8365;51.030;4.696;2022-11-20T15:41:58;8.21;118.99
16505;HTU21D;8365;51.030;4.696;2022-11-20T15:44:28;8.19;118.99
16505;HTU21D;8365;51.030;4.696;2022-11-20T15:46:59;8.35;118.99
16505;HTU21D;8365;51.030;4.696;2022-11-20T15:49:29;8.32;118.99
16505;HTU21D;8365;51.030;4.696;2022-11-20T15:52:00;8.37;118.99
16505;HTU21D;8365;51.030;4.696;2022-11-20T15:54:30;8.35;118.99
16505;HTU21D;8365;51.030;4.696;2022-11-20T15:57:01;8.35;118.99
16505;HTU21D;8365;51.030;4.696;2022-11-20T15:59:35;8.43;118.99
16505;HTU21D;8365;51.030;4.696;2022-11-20T16:02:14;8.44;118.99
16505;HTU21D;8365;51.030;4.696;2022-11-20T16:04:45;8.42;118.99
16505;HTU21D;8365;51.030;4.696;2022-11-20T16:07:15;8.43;118.99
16505;HTU21D;8365;51.030;4.696;2022-11-20T16:09:46;8.43;118.99
16505;HTU21D;8365;51.030;4.696;2022-11-20T16:12:16;8.47;118.99
16505;HTU21D;8365;51.030;4.696;2022-11-20T16:15:08;8.38;118.99
16505;HTU21D;8365;51.030;4.696;2022-11-20T16:17:57;8.37;118.99
16505;HTU21D;8365;51.030;4.696;2022-11-20T16:20:27;8.38;118.99
16505;HTU21D;8365;51.030;4.696;2022-11-20T16:22:59;8.48;118.99
16505;HTU21D;8365;51.030;4.696;2022-11-20T16:25:29;8.46;118.99
16505;HTU21D;8365;51.030;4.696;2022-11-20T16:28:00;8.51;118.99
16505;HTU21D;8365;51.030;4.696;2022-11-20T16:30:32;8.44;118.99
16505;HTU21D;8365;51.030;4.696;2022-11-20T16:33:03;8.44;118.99
16505;HTU21D;8365;51.030;4.696;2022-11-20T16:35:34;8.37;118.99
16505;HTU21D;8365;51.030;4.696;2022-11-20T16:38:05;8.34;118.99
16505;HTU21D;8365;51.030;4.696;2022-11-20T16:40:35;8.37;118.99
16505;HTU21D;8365;51.030;4.696;2022-11-20T16:43:10;8.28;118.99
16505;HTU21D;8365;51.030;4.696;2022-11-20T16:45:44;8.31;118.99
16505;HTU21D;8365;51.030;4.696;2022-11-20T16:48:15;8.29;118.99
16505;HTU21D;8365;51.030;4.696;2022-11-20T16:50:49;8.38;118.99
16505;HTU21D;8365;51.030;4.696;2022-11-20T16:53:21;8.37;118.99
16505;HTU21D;8365;51.030;4.696;2022-11-20T16:55:51;8.31;118.99
16505;HTU21D;8365;51.030;4.696;2022-11-20T16:58:22;8.41;118.99
16505;HTU21D;8365;51.030;4.696;2022-11-20T17:00:55;8.43;118.99
16505;HTU21D;8365;51.030;4.696;2022-11-20T17:03:25;8.36;118.99
16505;HTU21D;8365;51.030;4.696;2022-11-20T17:05:55;8.34;118.99
16505;HTU21D;8365;51.030;4.696;2022-11-20T17:08:27;8.35;118.99
16505;HTU21D;8365;51.030;4.696;2022-11-20T17:11:04;8.36;118.99
16505;HTU21D;8365;51.030;4.696;2022-11-20T17:13:35;8.37;118.99
16505;HTU21D;8365;51.030;4.696;2022-11-20T17:16:09;8.38;118.99
16505;HTU21D;8365;51.030;4.696;2022-11-20T17:18:40;8.44;118.99
16505;HTU21D;8365;51.030;4.696;2022-11-20T17:21:13;8.46;118.99
16505;HTU21D;8365;51.030;4.696;2022-11-20T17:23:44;8.46;118.99
16505;HTU21D;8365;51.030;4.696;2022-11-20T17:26:22;8.51;118.99
16505;HTU21D;8365;51.030;4.696;2022-11-20T17:28:58;8.50;118.99
16505;HTU21D;8365;51.030;4.696;2022-11-20T17:31:31;8.49;118.99